Time;durP1;ratioP1;P1;durP2;ratioP2;P2;SDS_P1;SDS_P2;PMS_P1;PMS_P2;Temp;Humidity;BMP_temperature;BMP_pressure;BME280_temperature;BME280_humidity;BME280_pressure;Samples;Min_cycle;Max_cycle;Signal;HPM_P1;HPM_P2
2023/04/18 00:01:37;;;;;;;24.38;16.05;;;9.80;99.90;;;;;;5028976;28;20504;-69
2023/04/18 00:04:04;;;;;;;33.85;16.42;;;9.80;99.90;;;;;;5029094;28;20400;-69
2023/04/18 00:06:31;;;;;;;25.65;16.52;;;9.80;99.90;;;;;;5029015;28;20053;-70
2023/04/18 00:08:58;;;;;;;26.90;16.17;;;9.90;99.90;;;;;;5028235;28;20041;-70
2023/04/18 00:11:25;;;;;;;30.30;16.42;;;9.90;99.90;;;;;;5009378;28;20080;-70
2023/04/18 00:13:51;;;;;;;27.30;15.88;;;9.90;99.90;;;;;;5023418;28;20136;-70
2023/04/18 00:16:18;;;;;;;26.45;15.48;;;9.80;99.90;;;;;;5038784;28;20057;-71
2023/04/18 00:18:45;;;;;;;31.98;16.88;;;9.80;99.90;;;;;;5028567;28;20507;-71
2023/04/18 00:21:12;;;;;;;26.35;15.07;;;9.70;99.90;;;;;;5027132;28;20489;-69
2023/04/18 00:23:39;;;;;;;26.50;15.02;;;9.70;99.90;;;;;;5011036;28;20048;-69
2023/04/18 00:26:06;;;;;;;27.42;17.13;;;9.70;99.90;;;;;;5028667;28;20056;-70
2023/04/18 00:28:32;;;;;;;23.63;14.60;;;9.70;99.90;;;;;;5027740;28;20132;-69
2023/04/18 00:30:59;;;;;;;24.55;14.80;;;9.70;99.90;;;;;;5028614;28;20059;-69
2023/04/18 00:33:26;;;;;;;24.05;16.35;;;9.70;99.90;;;;;;5028210;28;20144;-70
2023/04/18 00:35:53;;;;;;;22.88;15.55;;;9.80;99.90;;;;;;5028581;28;20502;-68
2023/04/18 00:38:19;;;;;;;25.95;17.27;;;9.80;99.90;;;;;;5029140;28;20129;-69
2023/04/18 00:40:46;;;;;;;29.98;16.80;;;9.70;99.90;;;;;;5031025;28;20057;-69
2023/04/18 00:43:13;;;;;;;23.73;15.73;;;9.60;99.90;;;;;;5014005;28;20046;-70
2023/04/18 00:45:40;;;;;;;24.67;16.15;;;9.60;99.90;;;;;;5013679;28;20044;-71
2023/04/18 00:48:07;;;;;;;26.20;15.90;;;9.60;99.90;;;;;;5031294;28;20544;-69
2023/04/18 00:50:35;;;;;;;26.88;16.58;;;9.70;99.90;;;;;;5030633;28;20045;-71
2023/04/18 00:53:01;;;;;;;29.40;16.92;;;9.60;99.90;;;;;;5010922;28;20057;-68
2023/04/18 00:55:28;;;;;;;33.42;16.67;;;9.70;99.90;;;;;;5010438;28;20132;-70
2023/04/18 00:57:55;;;;;;;26.88;16.73;;;9.70;99.90;;;;;;5011098;28;20059;-69
2023/04/18 01:00:22;;;;;;;28.67;18.43;;;9.70;99.90;;;;;;4679446;28;10000396;-69
2023/04/18 01:02:51;;;;;;;26.60;16.17;;;9.60;99.90;;;;;;5025593;28;20072;-70
2023/04/18 01:05:21;;;;;;;33.03;18.40;;;9.70;99.90;;;;;;5027255;28;20049;-70
2023/04/18 01:07:48;;;;;;;29.70;16.90;;;9.80;99.90;;;;;;5009679;28;20120;-70
2023/04/18 01:10:14;;;;;;;28.30;16.77;;;9.80;99.90;;;;;;5010836;28;20547;-69
2023/04/18 01:12:41;;;;;;;24.98;16.55;;;9.80;99.90;;;;;;4994313;28;20149;-70
2023/04/18 01:15:08;;;;;;;25.42;16.35;;;9.80;99.90;;;;;;5028340;28;20140;-69
2023/04/18 01:17:35;;;;;;;28.10;16.60;;;9.70;99.90;;;;;;5028702;28;20507;-71
2023/04/18 01:20:05;;;;;;;27.13;17.35;;;9.70;99.90;;;;;;5031073;28;20073;-69
2023/04/18 01:22:32;;;;;;;26.40;16.60;;;9.70;99.90;;;;;;5014373;28;20060;-70
2023/04/18 01:24:58;;;;;;;28.88;18.35;;;9.70;99.90;;;;;;5030611;28;20116;-69
2023/04/18 01:27:25;;;;;;;28.83;17.15;;;9.80;99.90;;;;;;5031087;28;20324;-67
2023/04/18 01:29:52;;;;;;;25.40;16.52;;;9.70;99.90;;;;;;5012077;28;20512;-69
2023/04/18 01:32:19;;;;;;;26.88;16.08;;;9.70;99.90;;;;;;5027764;28;20107;-69
2023/04/18 01:34:46;;;;;;;30.83;16.35;;;9.70;99.90;;;;;;5043451;28;20080;-70
2023/04/18 01:37:13;;;;;;;24.80;16.38;;;9.60;99.90;;;;;;5027487;28;20041;-69
2023/04/18 01:39:40;;;;;;;26.23;15.90;;;9.70;99.90;;;;;;5044181;28;20096;-70
2023/04/18 01:42:06;;;;;;;30.45;16.20;;;9.60;99.90;;;;;;5029244;28;20041;-69
2023/04/18 01:44:33;;;;;;;29.85;15.85;;;9.60;99.90;;;;;;5030740;28;20072;-69
2023/04/18 01:47:00;;;;;;;24.05;15.73;;;9.60;99.90;;;;;;5031335;28;20049;-69
2023/04/18 01:49:27;;;;;;;24.55;15.50;;;9.60;99.90;;;;;;5035255;28;20049;-70
2023/04/18 01:51:54;;;;;;;27.33;16.55;;;9.60;99.90;;;;;;5036693;28;20101;-70
2023/04/18 01:54:20;;;;;;;26.65;16.70;;;9.60;99.90;;;;;;5033039;28;20311;-69
2023/04/18 01:56:47;;;;;;;29.50;15.50;;;9.60;99.90;;;;;;5031502;28;20041;-69
2023/04/18 01:59:14;;;;;;;23.45;15.15;;;9.60;99.90;;;;;;5031757;28;20168;-71
2023/04/18 02:01:41;;;;;;;27.20;15.38;;;9.60;99.90;;;;;;5031682;28;20496;-70
2023/04/18 02:04:08;;;;;;;33.20;16.27;;;9.60;99.90;;;;;;5027290;28;20500;-69
2023/04/18 02:06:35;;;;;;;25.15;15.15;;;9.60;99.90;;;;;;5031132;28;20104;-69
2023/04/18 02:09:01;;;;;;;28.15;15.40;;;9.60;99.90;;;;;;5031118;28;20059;-70
2023/04/18 02:11:29;;;;;;;28.73;17.17;;;9.70;99.90;;;;;;5013103;28;20103;-70
2023/04/18 02:13:56;;;;;;;26.67;15.48;;;9.70;99.90;;;;;;5030296;28;20148;-70
2023/04/18 02:16:23;;;;;;;24.95;15.05;;;9.70;99.90;;;;;;5030441;28;20084;-70
2023/04/18 02:18:51;;;;;;;25.60;15.38;;;9.60;99.90;;;;;;5030977;28;20049;-70
2023/04/18 02:21:18;;;;;;;25.38;14.93;;;9.60;99.90;;;;;;5013248;28;20574;-70
2023/04/18 02:23:45;;;;;;;23.48;14.88;;;9.60;99.90;;;;;;5029579;28;20518;-70
2023/04/18 02:26:12;;;;;;;28.17;15.23;;;9.70;99.90;;;;;;5030711;28;20057;-70
2023/04/18 02:28:38;;;;;;;28.95;17.05;;;9.70;99.90;;;;;;5030094;28;20120;-70
2023/04/18 02:31:06;;;;;;;25.95;17.00;;;9.70;99.90;;;;;;5030388;28;20057;-69
2023/04/18 02:33:33;;;;;;;31.02;18.35;;;9.70;99.90;;;;;;5030017;28;20076;-70
2023/04/18 02:36:00;;;;;;;29.95;16.63;;;9.70;99.90;;;;;;5011725;28;20471;-70
2023/04/18 02:38:27;;;;;;;29.88;17.35;;;9.90;99.90;;;;;;5029869;28;20137;-69
2023/04/18 02:40:54;;;;;;;28.75;16.98;;;9.70;99.90;;;;;;5029168;28;20408;-70
2023/04/18 02:43:21;;;;;;;35.65;18.40;;;9.80;99.90;;;;;;5030535;28;20208;-69
2023/04/18 02:45:48;;;;;;;30.33;16.85;;;9.80;99.90;;;;;;5012149;28;20045;-70
2023/04/18 02:48:15;;;;;;;23.83;15.18;;;9.70;99.90;;;;;;5029931;28;20061;-69
2023/04/18 02:50:42;;;;;;;32.70;17.65;;;9.70;99.90;;;;;;5028372;28;20133;-70
2023/04/18 02:53:08;;;;;;;36.67;17.80;;;9.70;99.90;;;;;;5029685;28;20049;-70
2023/04/18 02:55:36;;;;;;;31.35;16.38;;;9.80;99.90;;;;;;5026858;28;20318;-69
2023/04/18 02:58:02;;;;;;;23.52;15.32;;;9.80;99.90;;;;;;5027235;28;20072;-71
2023/04/18 03:00:29;;;;;;;29.25;17.00;;;9.80;99.90;;;;;;5029477;28;20053;-70
2023/04/18 03:02:56;;;;;;;26.85;16.83;;;9.90;99.90;;;;;;5029746;28;20128;-70
2023/04/18 03:05:23;;;;;;;33.10;17.13;;;9.90;99.90;;;;;;5029172;28;20046;-70
2023/04/18 03:07:50;;;;;;;28.13;16.27;;;9.90;99.90;;;;;;5029866;28;20054;-70
2023/04/18 03:10:17;;;;;;;26.60;16.77;;;9.80;99.90;;;;;;5029312;28;20591;-71
2023/04/18 03:12:44;;;;;;;25.02;16.13;;;9.80;99.90;;;;;;5029508;28;20128;-70
2023/04/18 03:15:10;;;;;;;26.52;15.40;;;9.80;99.90;;;;;;5028958;28;20046;-71
2023/04/18 03:17:40;;;;;;;26.50;16.67;;;9.70;99.90;;;;;;5012109;28;20100;-69
2023/04/18 03:20:09;;;;;;;25.52;15.05;;;9.70;99.90;;;;;;5024439;28;20053;-68
2023/04/18 03:22:35;;;;;;;28.40;16.17;;;9.60;99.90;;;;;;5029533;28;20033;-69
2023/04/18 03:25:02;;;;;;;28.05;15.48;;;9.70;99.90;;;;;;5011307;28;20060;-69
2023/04/18 03:27:29;;;;;;;31.38;16.90;;;9.60;99.90;;;;;;5018027;28;20081;-70
2023/04/18 03:29:56;;;;;;;25.05;15.98;;;9.60;99.90;;;;;;5028041;28;20072;-69
2023/04/18 03:32:23;;;;;;;26.77;15.88;;;9.60;99.90;;;;;;5029189;28;20042;-70
2023/04/18 03:34:50;;;;;;;27.48;15.32;;;9.70;99.90;;;;;;5028542;28;20419;-69
2023/04/18 03:37:16;;;;;;;27.17;14.95;;;9.70;99.90;;;;;;5029274;28;20127;-70
2023/04/18 03:39:43;;;;;;;24.98;15.07;;;9.70;99.90;;;;;;5024813;28;20099;-69
2023/04/18 03:42:10;;;;;;;29.42;16.85;;;9.80;99.90;;;;;;5029355;28;20052;-69
2023/04/18 03:44:37;;;;;;;30.33;16.33;;;9.80;99.90;;;;;;5028401;28;20073;-69
2023/04/18 03:47:03;;;;;;;23.52;15.20;;;9.80;99.90;;;;;;5029498;28;20045;-69
2023/04/18 03:49:30;;;;;;;31.30;15.75;;;9.80;99.90;;;;;;5028629;28;20809;-70
2023/04/18 03:51:57;;;;;;;24.75;14.68;;;9.70;99.90;;;;;;5025223;28;20046;-70
2023/04/18 03:54:24;;;;;;;27.13;15.93;;;9.70;99.90;;;;;;5028489;28;20348;-69
2023/04/18 03:56:51;;;;;;;24.15;13.93;;;9.70;99.90;;;;;;5028373;28;20564;-70
2023/04/18 03:59:17;;;;;;;24.90;13.57;;;9.70;99.90;;;;;;5010504;28;20077;-70
2023/04/18 04:01:44;;;;;;;22.92;15.80;;;9.60;99.90;;;;;;5027464;28;20497;-70
2023/04/18 04:04:13;;;;;;;25.98;14.80;;;9.60;99.90;;;;;;5008845;28;20076;-69
2023/04/18 04:06:41;;;;;;;26.85;15.32;;;9.50;99.90;;;;;;5028121;28;20038;-69
2023/04/18 04:09:08;;;;;;;25.88;16.15;;;9.60;99.90;;;;;;5028635;28;20149;-69
2023/04/18 04:11:35;;;;;;;28.35;17.15;;;9.60;99.90;;;;;;5021460;28;20584;-69
2023/04/18 04:14:01;;;;;;;30.70;16.73;;;9.50;99.90;;;;;;5028543;28;20104;-70
2023/04/18 04:16:28;;;;;;;21.55;14.70;;;9.40;99.90;;;;;;5010556;28;20298;-69
2023/04/18 04:18:55;;;;;;;24.42;15.90;;;9.40;99.90;;;;;;5014746;28;20099;-68
2023/04/18 04:21:22;;;;;;;24.08;14.38;;;9.30;99.90;;;;;;5015536;28;20055;-70
2023/04/18 04:23:49;;;;;;;27.90;16.15;;;9.20;99.90;;;;;;5030988;28;20050;-70
2023/04/18 04:26:16;;;;;;;26.83;14.55;;;9.20;99.90;;;;;;5029254;28;20150;-70
2023/04/18 04:28:45;;;;;;;23.85;14.45;;;9.20;99.90;;;;;;5028393;28;20077;-69
2023/04/18 04:31:12;;;;;;;26.33;15.70;;;9.20;99.90;;;;;;5028141;28;20076;-70
2023/04/18 04:33:39;;;;;;;24.25;14.95;;;9.10;99.90;;;;;;5028153;28;20055;-69
2023/04/18 04:36:07;;;;;;;29.83;14.90;;;9.00;99.90;;;;;;5010855;28;20049;-69
2023/04/18 04:38:37;;;;;;;30.63;16.05;;;8.90;99.90;;;;;;5027853;28;20053;-69
2023/04/18 04:41:08;;;;;;;24.83;14.98;;;8.90;99.90;;;;;;5028034;28;20077;-69
2023/04/18 04:43:34;;;;;;;26.88;15.93;;;8.90;99.90;;;;;;5027135;28;20119;-70
2023/04/18 04:46:02;;;;;;;36.97;16.65;;;8.90;99.90;;;;;;5015498;28;20065;-69
2023/04/18 04:48:29;;;;;;;26.67;13.40;;;8.90;99.90;;;;;;5026529;28;20079;-70
2023/04/18 04:50:57;;;;;;;28.42;14.77;;;8.90;99.90;;;;;;5028008;28;20108;-70
2023/04/18 04:53:25;;;;;;;26.35;15.90;;;8.80;99.90;;;;;;5027333;28;20038;-69
2023/04/18 04:55:51;;;;;;;24.30;15.00;;;8.80;99.90;;;;;;5027793;28;20053;-69
2023/04/18 04:58:18;;;;;;;29.33;15.57;;;8.80;99.90;;;;;;5027566;28;20055;-69
2023/04/18 05:00:46;;;;;;;34.83;17.15;;;8.80;99.90;;;;;;5009448;28;20053;-70
2023/04/18 05:03:12;;;;;;;29.63;17.20;;;8.70;99.90;;;;;;5027617;28;20204;-70
2023/04/18 05:05:39;;;;;;;26.70;15.52;;;8.70;99.90;;;;;;5009514;28;20087;-69
2023/04/18 05:08:06;;;;;;;26.98;15.57;;;8.70;99.90;;;;;;5009704;28;20046;-70
2023/04/18 05:10:35;;;;;;;27.63;15.73;;;8.80;99.90;;;;;;5026938;28;20179;-70
2023/04/18 05:13:03;;;;;;;27.05;16.35;;;8.80;99.90;;;;;;5009642;28;20512;-69
2023/04/18 05:15:30;;;;;;;26.30;15.27;;;8.70;99.90;;;;;;5027055;28;20153;-71
2023/04/18 05:17:57;;;;;;;28.38;14.90;;;8.70;99.90;;;;;;5027564;28;20057;-70
2023/04/18 05:20:24;;;;;;;25.40;15.00;;;8.70;99.90;;;;;;5027493;28;20046;-70
2023/04/18 05:22:50;;;;;;;30.98;16.95;;;8.70;99.90;;;;;;5027270;28;20064;-69
2023/04/18 05:25:17;;;;;;;27.55;16.20;;;8.70;99.90;;;;;;5027199;28;20080;-71
2023/04/18 05:27:45;;;;;;;24.60;16.20;;;8.70;99.90;;;;;;5010262;28;20129;-70
2023/04/18 05:30:12;;;;;;;29.15;16.52;;;8.70;99.90;;;;;;5015210;28;20096;-70
2023/04/18 05:32:39;;;;;;;31.40;16.00;;;8.60;99.90;;;;;;5027631;28;20049;-69
2023/04/18 05:35:06;;;;;;;30.15;16.48;;;8.60;99.90;;;;;;5022661;28;20515;-70
2023/04/18 05:37:33;;;;;;;26.75;15.85;;;8.70;99.90;;;;;;5027691;28;20046;-70
2023/04/18 05:40:00;;;;;;;29.77;17.65;;;8.70;99.90;;;;;;5024196;28;20128;-70
2023/04/18 05:42:27;;;;;;;27.90;15.65;;;8.70;99.90;;;;;;5009701;28;20136;-69
2023/04/18 05:44:54;;;;;;;27.95;16.23;;;8.60;99.90;;;;;;5024432;28;20053;-68
2023/04/18 05:47:22;;;;;;;27.27;16.08;;;8.60;99.90;;;;;;5017840;28;20551;-69
2023/04/18 05:49:49;;;;;;;26.90;16.13;;;8.60;99.90;;;;;;5019633;28;20107;-70
2023/04/18 05:52:16;;;;;;;27.58;15.77;;;8.60;99.90;;;;;;5006740;28;20058;-70
2023/04/18 05:54:43;;;;;;;27.75;16.20;;;8.60;99.90;;;;;;4660352;28;10000260;-69
2023/04/18 05:57:10;;;;;;;28.75;15.30;;;8.60;99.90;;;;;;5024398;28;20096;-70
2023/04/18 05:59:36;;;;;;;24.77;15.18;;;8.60;99.90;;;;;;5024064;28;20054;-69
2023/04/18 06:02:03;;;;;;;40.03;18.77;;;8.70;99.90;;;;;;5005792;28;20111;-70
2023/04/18 06:04:30;;;;;;;35.00;16.33;;;8.60;99.90;;;;;;5005673;28;20047;-69
2023/04/18 06:06:57;;;;;;;32.78;17.42;;;8.70;99.90;;;;;;5006806;28;20088;-70
2023/04/18 06:09:24;;;;;;;39.28;18.75;;;8.70;99.90;;;;;;5012753;28;20137;-70
2023/04/18 06:11:51;;;;;;;28.05;16.42;;;8.80;99.90;;;;;;5026734;28;20049;-70
2023/04/18 06:14:18;;;;;;;27.35;16.65;;;8.80;99.90;;;;;;5026248;28;20132;-70
2023/04/18 06:16:44;;;;;;;25.60;15.38;;;8.80;99.90;;;;;;5026305;28;20325;-71
2023/04/18 06:19:11;;;;;;;29.17;15.80;;;8.80;99.90;;;;;;5009158;28;20564;-71
2023/04/18 06:21:40;;;;;;;28.15;16.77;;;8.80;99.90;;;;;;5026611;28;20120;-71
2023/04/18 06:24:08;;;;;;;30.17;16.45;;;8.80;99.90;;;;;;5026262;28;20057;-69
2023/04/18 06:26:35;;;;;;;30.27;16.20;;;8.80;99.90;;;;;;5023248;28;20050;-70
2023/04/18 06:29:02;;;;;;;31.05;17.17;;;8.70;99.90;;;;;;5030000;28;20059;-70
2023/04/18 06:31:28;;;;;;;27.52;16.70;;;8.70;99.90;;;;;;5012530;28;20472;-72
2023/04/18 06:33:55;;;;;;;25.98;16.08;;;8.70;99.90;;;;;;5012889;28;20049;-71
2023/04/18 06:36:22;;;;;;;28.77;17.02;;;8.80;99.90;;;;;;5029393;28;20045;-71
2023/04/18 06:38:49;;;;;;;28.52;17.08;;;8.70;99.90;;;;;;5016568;28;20049;-69
2023/04/18 06:41:16;;;;;;;28.45;17.33;;;8.60;99.90;;;;;;5029784;28;20045;-69
2023/04/18 06:43:43;;;;;;;27.27;17.23;;;8.60;99.90;;;;;;5005561;28;20115;-69
2023/04/18 06:46:27;;;;;;;;;;;8.70;99.90;;;;;;5034229;28;20049;-70
2023/04/18 06:48:54;;;;;;;26.13;15.77;;;8.70;99.90;;;;;;5013994;28;19933;-68
2023/04/18 06:51:21;;;;;;;30.38;16.70;;;8.80;99.90;;;;;;5010754;28;20051;-69
2023/04/18 06:53:51;;;;;;;26.10;15.75;;;8.80;99.90;;;;;;5028015;28;20833;-69
2023/04/18 06:56:19;;;;;;;26.88;14.77;;;8.90;99.90;;;;;;5026797;28;20162;-69
2023/04/18 06:58:46;;;;;;;28.48;16.25;;;8.90;99.90;;;;;;4994896;28;20052;-68
2023/04/18 07:01:13;;;;;;;28.17;16.63;;;9.00;99.90;;;;;;5029049;28;20161;-68
2023/04/18 07:03:40;;;;;;;26.52;16.05;;;9.00;99.90;;;;;;5028964;28;20084;-68
2023/04/18 07:06:09;;;;;;;29.05;15.80;;;9.10;99.90;;;;;;5011731;28;20056;-70
2023/04/18 07:08:36;;;;;;;25.48;16.23;;;9.10;99.90;;;;;;5011990;28;20037;-68
2023/04/18 07:11:03;;;;;;;31.83;16.80;;;9.10;99.90;;;;;;5029987;28;20064;-68
2023/04/18 07:13:29;;;;;;;29.98;15.73;;;9.20;99.90;;;;;;5011322;28;20125;-67
2023/04/18 07:15:56;;;;;;;28.13;16.08;;;9.20;99.90;;;;;;5009583;28;20050;-67
2023/04/18 07:18:23;;;;;;;29.63;16.95;;;9.20;99.90;;;;;;5018328;28;20045;-69
2023/04/18 07:21:06;;;;;;;32.45;17.52;;;9.30;99.90;;;;;;5015405;28;20045;-66
2023/04/18 07:23:33;;;;;;;30.77;17.38;;;9.40;99.90;;;;;;5027291;28;20037;-68
2023/04/18 07:26:01;;;;;;;33.47;16.98;;;9.40;99.90;;;;;;5024127;28;20500;-70
2023/04/18 07:28:29;;;;;;;29.13;16.52;;;9.50;99.90;;;;;;5010605;28;20046;-69
2023/04/18 07:30:56;;;;;;;28.70;16.00;;;9.60;99.90;;;;;;5010157;28;20050;-69
2023/04/18 07:33:23;;;;;;;29.85;15.85;;;9.60;99.90;;;;;;5027653;28;20088;-68
2023/04/18 07:35:51;;;;;;;32.97;16.00;;;9.60;99.90;;;;;;5006536;28;20140;-69
2023/04/18 07:38:18;;;;;;;27.30;14.93;;;9.60;99.90;;;;;;5010303;28;20523;-67
2023/04/18 07:40:45;;;;;;;25.92;15.63;;;9.60;99.90;;;;;;5028504;28;20049;-67
2023/04/18 07:43:12;;;;;;;28.05;16.40;;;9.60;99.90;;;;;;5029263;28;20424;-68
2023/04/18 07:45:41;;;;;;;29.73;14.57;;;9.50;99.90;;;;;;5028466;28;20063;-68
2023/04/18 07:48:09;;;;;;;24.50;14.95;;;9.60;99.90;;;;;;5044287;28;20554;-67
2023/04/18 07:50:37;;;;;;;31.40;16.45;;;9.60;99.90;;;;;;5027202;28;20053;-68
2023/04/18 07:53:03;;;;;;;22.90;14.73;;;9.70;99.90;;;;;;5027969;28;20076;-68
2023/04/18 07:55:30;;;;;;;26.60;14.60;;;9.80;99.90;;;;;;5027925;28;20045;-68
2023/04/18 07:57:57;;;;;;;22.25;13.82;;;9.90;99.90;;;;;;5010703;28;20042;-68
2023/04/18 08:00:24;;;;;;;28.55;14.18;;;9.90;99.90;;;;;;5022180;28;20133;-69
2023/04/18 08:02:51;;;;;;;34.47;16.02;;;9.90;99.90;;;;;;5022211;28;20052;-69
2023/04/18 08:05:18;;;;;;;29.08;13.88;;;10.00;99.90;;;;;;5027044;28;20120;-69
2023/04/18 08:07:45;;;;;;;23.55;13.07;;;10.10;99.90;;;;;;4677760;28;9999913;-70
2023/04/18 08:10:12;;;;;;;26.67;13.80;;;10.20;99.90;;;;;;5025006;28;20049;-69
2023/04/18 08:12:39;;;;;;;20.67;12.45;;;10.30;99.90;;;;;;5028529;28;20084;-69
2023/04/18 08:15:06;;;;;;;27.75;13.93;;;10.30;99.90;;;;;;5027717;28;20504;-68
2023/04/18 08:17:33;;;;;;;31.00;13.43;;;10.40;99.90;;;;;;5028547;28;20137;-69
2023/04/18 08:20:03;;;;;;;24.00;13.18;;;10.50;99.90;;;;;;5028390;28;20053;-69
2023/04/18 08:22:30;;;;;;;25.40;12.40;;;10.60;99.90;;;;;;5028496;28;20041;-66
2023/04/18 08:24:59;;;;;;;21.15;11.07;;;10.60;99.90;;;;;;5027584;28;20045;-69
2023/04/18 08:27:31;;;;;;;24.15;11.98;;;10.70;99.90;;;;;;5025176;28;20049;-69
2023/04/18 08:29:59;;;;;;;18.70;11.23;;;10.80;99.90;;;;;;5029546;28;20067;-69
2023/04/18 08:32:26;;;;;;;24.67;10.95;;;10.80;99.90;;;;;;5030286;28;20077;-68
2023/04/18 08:34:53;;;;;;;27.30;12.77;;;10.90;99.90;;;;;;5029658;28;20045;-69
2023/04/18 08:37:20;;;;;;;17.92;9.55;;;11.00;99.90;;;;;;5029404;28;20042;-70
2023/04/18 08:39:47;;;;;;;16.88;8.85;;;11.10;99.90;;;;;;5027360;28;20111;-69
2023/04/18 08:42:18;;;;;;;17.45;9.63;;;11.20;99.90;;;;;;5027617;28;20489;-69
2023/04/18 08:44:46;;;;;;;15.25;9.40;;;11.20;99.90;;;;;;5010416;28;20103;-69
2023/04/18 08:47:13;;;;;;;16.25;8.98;;;11.30;99.90;;;;;;5027377;28;20048;-67
2023/04/18 08:49:40;;;;;;;19.50;9.50;;;11.20;99.90;;;;;;4993258;28;20121;-67
2023/04/18 08:52:12;;;;;;;19.45;9.35;;;11.20;99.90;;;;;;5025686;28;20135;-68
2023/04/18 08:54:43;;;;;;;18.83;8.70;;;11.10;99.90;;;;;;4995215;28;20075;-69
2023/04/18 08:57:11;;;;;;;20.80;8.70;;;11.00;99.90;;;;;;5026256;28;20503;-69
2023/04/18 08:59:38;;;;;;;14.48;8.75;;;10.90;99.90;;;;;;5014085;28;20128;-68
2023/04/18 09:02:07;;;;;;;21.88;8.70;;;11.00;99.90;;;;;;5024892;28;20503;-68
2023/04/18 09:04:39;;;;;;;15.10;8.27;;;10.90;99.90;;;;;;4995445;28;20053;-68
2023/04/18 09:07:08;;;;;;;15.65;8.48;;;10.90;99.90;;;;;;4993961;28;20077;-69
2023/04/18 09:09:45;;;;;;;20.88;8.48;;;11.00;99.90;;;;;;4994950;28;20136;-69
2023/04/18 09:12:13;;;;;;;14.75;7.60;;;11.10;99.90;;;;;;5030848;28;20037;-69
2023/04/18 09:14:48;;;;;;;19.70;8.85;;;11.20;99.90;;;;;;5023201;28;20501;-70
2023/04/18 09:17:32;;;;;;;17.95;7.60;;;11.30;99.90;;;;;;5026424;28;20041;-69
2023/04/18 09:20:00;;;;;;;21.50;8.90;;;11.30;99.90;;;;;;5019642;28;20084;-69
2023/04/18 09:22:46;;;;;;;18.00;8.60;;;11.30;99.90;;;;;;4993080;28;20045;-68
2023/04/18 09:25:45;;;;;;;15.35;7.68;;;11.30;99.90;;;;;;5017157;28;20046;-69
2023/04/18 09:28:23;;;;;;;19.85;7.13;;;11.10;99.90;;;;;;5016342;28;20041;-69
2023/04/18 09:30:51;;;;;;;16.63;7.00;;;11.10;99.90;;;;;;5009924;28;20081;-70
2023/04/18 09:33:32;;;;;;;29.30;8.52;;;11.00;99.90;;;;;;5027369;28;20522;-69
2023/04/18 09:36:19;;;;;;;15.10;6.55;;;11.00;99.90;;;;;;5009120;28;20049;-69
2023/04/18 09:38:47;;;;;;;14.23;6.07;;;11.00;99.90;;;;;;5025808;28;20042;-68
2023/04/18 09:41:15;;;;;;;19.08;6.47;;;11.10;99.90;;;;;;5019814;28;20052;-69
2023/04/18 09:43:46;;;;;;;14.27;7.03;;;11.10;99.90;;;;;;5010376;28;20042;-69
2023/04/18 09:46:13;;;;;;;12.70;6.00;;;11.10;99.90;;;;;;5027150;28;20563;-69
2023/04/18 09:48:40;;;;;;;18.10;6.15;;;11.10;99.90;;;;;;5026795;28;20484;-69
2023/04/18 09:51:09;;;;;;;15.35;6.38;;;11.00;99.90;;;;;;5027021;28;20042;-70
2023/04/18 09:53:38;;;;;;;15.75;6.15;;;11.10;99.90;;;;;;5008748;28;20048;-69
2023/04/18 09:56:24;;;;;;;21.58;7.97;;;11.10;99.90;;;;;;5025764;28;20153;-70
2023/04/18 09:58:55;;;;;;;18.90;6.45;;;11.10;99.90;;;;;;5024232;28;20053;-69
2023/04/18 10:01:26;;;;;;;16.33;6.60;;;11.10;99.90;;;;;;5030092;28;20061;-70
2023/04/18 10:03:53;;;;;;;13.48;5.95;;;11.00;99.90;;;;;;5031054;28;20050;-70
2023/04/18 10:06:20;;;;;;;29.33;6.07;;;11.00;99.90;;;;;;5011727;28;20049;-69
2023/04/18 10:08:47;;;;;;;21.73;6.72;;;11.00;99.90;;;;;;5012520;28;20049;-70
2023/04/18 10:11:14;;;;;;;22.30;7.45;;;11.10;99.90;;;;;;5030752;28;20073;-67
2023/04/18 10:13:42;;;;;;;12.68;6.60;;;11.20;99.90;;;;;;5013326;28;20096;-69
2023/04/18 10:16:09;;;;;;;14.35;5.88;;;11.20;99.90;;;;;;5013026;28;20122;-69
2023/04/18 10:18:36;;;;;;;13.95;6.43;;;11.20;99.90;;;;;;5013398;28;20130;-70
2023/04/18 10:21:04;;;;;;;11.45;6.40;;;11.30;99.90;;;;;;5030589;28;20050;-69
2023/04/18 10:23:31;;;;;;;11.13;6.32;;;11.30;99.90;;;;;;5030037;28;20049;-69
2023/04/18 10:25:58;;;;;;;17.38;5.75;;;11.20;99.90;;;;;;5029928;28;20132;-69
2023/04/18 10:28:26;;;;;;;13.05;5.72;;;11.20;99.90;;;;;;5031123;28;20284;-69
2023/04/18 10:31:02;;;;;;;13.43;5.15;;;11.20;99.90;;;;;;5012667;28;20060;-68
2023/04/18 10:33:36;;;;;;;12.75;5.18;;;11.30;99.90;;;;;;4993554;28;20128;-69
2023/04/18 10:36:08;;;;;;;13.93;5.03;;;11.40;99.90;;;;;;4994032;28;20488;-68
2023/04/18 10:38:37;;;;;;;16.13;5.53;;;11.40;99.90;;;;;;5030347;28;20045;-70
2023/04/18 10:41:30;;;;;;;13.40;5.05;;;11.40;99.90;;;;;;5012998;28;20430;-70
2023/04/18 10:44:06;;;;;;;11.80;4.97;;;11.40;99.90;;;;;;5028448;28;20505;-69
2023/04/18 10:47:02;;;;;;;23.45;4.88;;;11.50;99.90;;;;;;5008794;28;20120;-69
2023/04/18 10:49:30;;;;;;;12.60;4.45;;;11.40;99.90;;;;;;4997774;28;20049;-69
2023/04/18 10:52:00;;;;;;;20.73;4.72;;;11.40;99.90;;;;;;5028957;28;20076;-68
2023/04/18 10:54:39;;;;;;;14.55;4.00;;;11.40;99.90;;;;;;5029920;28;20041;-68
2023/04/18 10:57:10;;;;;;;11.18;4.43;;;11.50;99.90;;;;;;5029406;28;20128;-68
2023/04/18 10:59:41;;;;;;;8.75;3.97;;;11.40;99.90;;;;;;4993944;28;20125;-68
2023/04/18 11:02:31;;;;;;;14.52;6.90;;;11.40;99.90;;;;;;5028433;28;20264;-68
2023/04/18 11:04:59;;;;;;;13.63;4.18;;;11.30;99.90;;;;;;5015758;28;20055;-68
2023/04/18 11:07:39;;;;;;;12.05;4.25;;;11.20;99.90;;;;;;5029530;28;20124;-68
2023/04/18 11:10:07;;;;;;;13.90;3.20;;;11.20;99.90;;;;;;5031317;28;20047;-69
2023/04/18 11:12:35;;;;;;;13.50;5.18;;;11.30;99.90;;;;;;5010950;28;20046;-70
2023/04/18 11:15:09;;;;;;;10.50;3.75;;;11.20;99.90;;;;;;4993106;28;20050;-69
2023/04/18 11:17:38;;;;;;;9.23;3.65;;;11.10;99.90;;;;;;5009191;28;20049;-69
2023/04/18 11:20:15;;;;;;;14.82;3.83;;;11.10;99.90;;;;;;5028511;28;20051;-68
2023/04/18 11:23:00;;;;;;;9.88;4.13;;;11.00;99.90;;;;;;5028580;28;20578;-69
2023/04/18 11:25:33;;;;;;;16.30;4.60;;;11.10;99.90;;;;;;4992711;28;20417;-67
2023/04/18 11:28:01;;;;;;;19.90;5.68;;;11.10;99.90;;;;;;5026472;28;20074;-68
2023/04/18 11:30:35;;;;;;;14.60;5.35;;;11.40;99.90;;;;;;4996480;28;20045;-68
2023/04/18 11:33:09;;;;;;;17.75;5.63;;;11.50;99.90;;;;;;5029343;28;20054;-68
2023/04/18 11:35:40;;;;;;;18.88;6.10;;;11.60;99.90;;;;;;5008589;28;20104;-68
2023/04/18 11:38:08;;;;;;;17.65;6.05;;;11.70;99.90;;;;;;5008969;28;20137;-68
2023/04/18 11:40:35;;;;;;;12.98;5.75;;;11.60;99.90;;;;;;5030319;28;20049;-68
2023/04/18 11:43:03;;;;;;;13.88;6.57;;;11.60;99.90;;;;;;5009857;28;20049;-68
2023/04/18 11:45:30;;;;;;;13.55;5.82;;;11.40;99.90;;;;;;5033879;28;20049;-68
2023/04/18 11:47:58;;;;;;;11.93;5.55;;;11.40;99.90;;;;;;5029600;28;20052;-68
2023/04/18 11:50:25;;;;;;;15.15;6.78;;;11.30;99.90;;;;;;5028035;28;20053;-68
2023/04/18 11:52:53;;;;;;;19.23;8.48;;;11.20;99.90;;;;;;5005666;28;20536;-68
2023/04/18 11:55:22;;;;;;;7.85;5.53;;;11.10;99.90;;;;;;5011403;28;20049;-68
2023/04/18 11:57:56;;;;;;;16.67;7.30;;;11.10;99.90;;;;;;5022815;28;20080;-68
2023/04/18 12:00:31;;;;;;;;;;;11.20;99.90;;;;;;5036694;28;20049;-67
2023/04/18 12:02:58;;;;;;;14.15;6.53;;;11.20;99.90;;;;;;5010907;28;20155;-67
2023/04/18 12:05:33;;;;;;;15.20;6.13;;;11.20;99.90;;;;;;5011333;28;20056;-68
2023/04/18 12:08:19;;;;;;;26.60;8.50;;;11.30;99.90;;;;;;5001910;28;20045;-69
2023/04/18 12:10:47;;;;;;;13.15;5.95;;;11.30;99.90;;;;;;5027097;28;20061;-69
2023/04/18 12:13:14;;;;;;;17.67;5.85;;;11.20;99.90;;;;;;5024837;28;20042;-68
2023/04/18 12:15:43;;;;;;;17.02;6.85;;;11.20;99.90;;;;;;5027327;28;20084;-68
2023/04/18 12:18:14;;;;;;;13.10;6.57;;;11.20;99.90;;;;;;4999807;28;20041;-68
2023/04/18 12:20:45;;;;;;;10.43;6.25;;;11.10;99.90;;;;;;5027229;28;20080;-68
2023/04/18 12:23:31;;;;;;;17.33;6.32;;;11.10;99.90;;;;;;5010646;28;20084;-68
2023/04/18 12:26:02;;;;;;;12.48;5.70;;;11.10;99.90;;;;;;5028634;28;20411;-67
2023/04/18 12:28:29;;;;;;;17.98;7.60;;;11.10;99.90;;;;;;5010287;28;20136;-68
2023/04/18 12:30:56;;;;;;;10.90;5.78;;;10.90;99.90;;;;;;5010786;28;20053;-68
2023/04/18 12:33:23;;;;;;;14.75;6.68;;;10.90;99.90;;;;;;5027823;28;20045;-69
2023/04/18 12:35:51;;;;;;;11.77;6.22;;;11.00;99.90;;;;;;5023059;28;20045;-69
2023/04/18 12:38:21;;;;;;;12.93;6.22;;;11.00;99.90;;;;;;5010398;28;20211;-68
2023/04/18 12:40:49;;;;;;;11.65;6.80;;;11.10;99.90;;;;;;5027440;28;20067;-69
2023/04/18 12:43:16;;;;;;;18.92;7.25;;;11.20;99.90;;;;;;5028643;28;20049;-69